createdAt,value
2019-03-23T00:00:14.764Z,11.47
2019-03-23T00:02:40.602Z,10.00
2019-03-23T00:05:06.660Z,13.30
2019-03-23T00:07:32.492Z,11.57
2019-03-23T00:09:58.811Z,10.40
2019-03-23T00:12:24.671Z,13.90
2019-03-23T00:14:50.488Z,11.17
2019-03-23T00:17:16.321Z,11.10
2019-03-23T00:19:42.245Z,18.00
2019-03-23T00:22:08.087Z,16.23
2019-03-23T00:24:33.893Z,11.00
2019-03-23T00:26:59.721Z,10.30
2019-03-23T00:29:25.583Z,9.40
2019-03-23T00:31:51.391Z,17.43
2019-03-23T00:34:17.227Z,10.23
2019-03-23T00:36:43.069Z,10.80
2019-03-23T00:39:08.895Z,11.07
2019-03-23T00:41:34.722Z,12.17
2019-03-23T00:44:00.576Z,10.47
2019-03-23T00:46:26.424Z,13.83
2019-03-23T00:48:52.266Z,11.23
2019-03-23T00:51:18.103Z,11.93
2019-03-23T00:53:43.916Z,10.90
2019-03-23T00:56:09.766Z,10.10
2019-03-23T00:58:35.578Z,10.23
2019-03-23T01:01:01.430Z,10.93
2019-03-23T01:03:27.248Z,10.60
2019-03-23T01:05:53.097Z,9.83
2019-03-23T01:08:18.930Z,13.27
2019-03-23T01:10:44.754Z,13.57
2019-03-23T01:13:10.591Z,9.27
2019-03-23T01:15:36.403Z,12.97
2019-03-23T01:18:02.214Z,8.90
2019-03-23T01:20:28.105Z,14.10
2019-03-23T01:22:53.906Z,9.67
2019-03-23T01:25:20.913Z,8.93
2019-03-23T01:27:46.761Z,11.77
2019-03-23T01:30:13.288Z,9.70
2019-03-23T01:32:39.107Z,12.07
2019-03-23T01:35:05.829Z,11.47
2019-03-23T01:37:31.667Z,10.90
2019-03-23T01:39:57.492Z,12.23
2019-03-23T01:42:23.341Z,9.20
2019-03-23T01:44:49.418Z,13.23
2019-03-23T01:47:15.277Z,8.77
2019-03-23T01:49:41.101Z,12.57
2019-03-23T01:52:06.902Z,25.97
2019-03-23T01:54:32.748Z,17.40
2019-03-23T01:56:58.574Z,16.57
2019-03-23T01:59:24.425Z,16.80
2019-03-23T02:01:50.250Z,11.00
2019-03-23T02:04:16.091Z,19.50
2019-03-23T02:06:41.908Z,11.50
2019-03-23T02:09:07.774Z,10.60
2019-03-23T02:11:33.809Z,10.20
2019-03-23T02:13:59.642Z,9.40
2019-03-23T02:16:25.485Z,12.47
2019-03-23T02:18:51.324Z,9.30
2019-03-23T02:21:17.161Z,18.23
2019-03-23T02:23:42.974Z,10.93
2019-03-23T02:26:08.811Z,11.13
2019-03-23T02:28:34.640Z,9.00
2019-03-23T02:31:00.494Z,12.87
2019-03-23T02:33:26.324Z,9.77
2019-03-23T02:35:52.147Z,10.67
2019-03-23T02:38:17.995Z,15.87
2019-03-23T02:40:43.818Z,12.10
2019-03-23T02:43:09.665Z,10.13
2019-03-23T02:45:35.521Z,12.43
2019-03-23T02:48:01.346Z,11.80
2019-03-23T02:50:27.159Z,9.00
2019-03-23T02:52:53.005Z,9.17
2019-03-23T02:55:18.848Z,10.57
2019-03-23T02:57:44.680Z,12.50
2019-03-23T03:00:13.103Z,11.80
2019-03-23T03:02:38.951Z,11.97
2019-03-23T03:05:07.840Z,9.37
2019-03-23T03:07:41.742Z,11.20
2019-03-23T03:10:02.718Z,10.33
2019-03-23T03:12:28.557Z,8.20
2019-03-23T03:14:54.408Z,9.27
2019-03-23T03:17:20.223Z,9.30
2019-03-23T03:19:46.180Z,10.80
2019-03-23T03:22:11.987Z,11.00
2019-03-23T03:24:37.815Z,11.07
2019-03-23T03:27:03.656Z,10.30
2019-03-23T03:29:29.479Z,9.60
2019-03-23T03:31:55.335Z,14.10
2019-03-23T03:34:21.227Z,11.10
2019-03-23T03:36:47.050Z,9.50
2019-03-23T03:39:12.886Z,12.47
2019-03-23T03:41:38.722Z,11.23
2019-03-23T03:44:04.545Z,9.93
2019-03-23T03:46:30.479Z,8.70
2019-03-23T03:48:56.295Z,9.57
2019-03-23T03:51:22.102Z,11.33
2019-03-23T03:53:47.920Z,10.33
2019-03-23T03:56:13.761Z,12.70
2019-03-23T03:58:39.587Z,9.67
2019-03-23T04:01:05.440Z,13.00
2019-03-23T04:03:31.263Z,9.40
2019-03-23T04:05:57.101Z,10.43
2019-03-23T04:08:22.916Z,13.53
2019-03-23T04:10:49.029Z,11.43
2019-03-23T04:13:14.860Z,11.40
2019-03-23T04:15:40.671Z,12.03
2019-03-23T04:18:06.524Z,17.03
2019-03-23T04:20:32.393Z,27.27
2019-03-23T04:22:58.241Z,52.97
2019-03-23T04:25:24.077Z,40.47
2019-03-23T04:27:49.925Z,24.63
2019-03-23T04:30:15.844Z,21.93
2019-03-23T04:32:41.680Z,15.00
2019-03-23T04:35:07.805Z,12.47
2019-03-23T04:37:33.643Z,12.53
2019-03-23T04:39:59.489Z,12.57
2019-03-23T04:42:25.309Z,13.23
2019-03-23T04:44:51.151Z,11.50
2019-03-23T04:47:17.012Z,11.30
2019-03-23T04:49:42.883Z,11.00
2019-03-23T04:52:08.714Z,14.03
2019-03-23T04:54:34.557Z,15.03
2019-03-23T04:57:00.389Z,10.57
2019-03-23T04:59:26.256Z,11.20
2019-03-23T05:01:52.067Z,11.33
2019-03-23T05:04:17.898Z,9.13
2019-03-23T05:06:43.729Z,11.90
2019-03-23T05:09:09.552Z,10.17
2019-03-23T05:11:35.392Z,23.77
2019-03-23T05:14:01.209Z,10.87
2019-03-23T05:16:27.033Z,11.57
2019-03-23T05:18:52.882Z,13.80
2019-03-23T05:21:18.735Z,16.10
2019-03-23T05:23:45.868Z,11.53
2019-03-23T05:26:11.817Z,14.83
2019-03-23T05:28:37.643Z,10.43
2019-03-23T05:31:03.467Z,12.43
2019-03-23T05:33:29.289Z,12.63
2019-03-23T05:35:55.134Z,12.23
2019-03-23T05:38:20.963Z,11.60
2019-03-23T05:40:46.779Z,11.37
2019-03-23T05:43:12.625Z,17.40
2019-03-23T05:45:38.444Z,14.67
2019-03-23T05:48:04.302Z,12.10
2019-03-23T05:50:30.117Z,11.90
2019-03-23T05:52:55.964Z,13.70
2019-03-23T05:55:21.782Z,10.00
2019-03-23T05:57:47.605Z,13.20
2019-03-23T06:00:15.121Z,11.50
2019-03-23T06:02:40.958Z,11.27
2019-03-23T06:05:06.866Z,11.33
2019-03-23T06:07:32.681Z,17.50
2019-03-23T06:09:58.503Z,10.40
2019-03-23T06:12:24.319Z,12.70
2019-03-23T06:14:50.160Z,11.00
2019-03-23T06:17:15.996Z,12.73
2019-03-23T06:19:41.902Z,11.60
2019-03-23T06:22:07.714Z,10.10
2019-03-23T06:24:33.527Z,12.20
2019-03-23T06:26:59.366Z,11.07
2019-03-23T06:29:25.197Z,10.17
2019-03-23T06:31:51.034Z,11.10
2019-03-23T06:34:16.860Z,11.07
2019-03-23T06:36:42.695Z,11.47
2019-03-23T06:39:08.538Z,11.60
2019-03-23T06:41:34.377Z,10.63
2019-03-23T06:44:00.203Z,10.60
2019-03-23T06:46:26.036Z,12.47
2019-03-23T06:48:51.870Z,10.70
2019-03-23T06:51:17.696Z,14.07
2019-03-23T06:53:43.511Z,13.60
2019-03-23T06:56:09.366Z,14.80
2019-03-23T06:58:35.209Z,15.67
2019-03-23T07:01:01.037Z,17.00
2019-03-23T07:03:26.848Z,17.03
2019-03-23T07:05:52.653Z,15.20
2019-03-23T07:08:18.484Z,13.73
2019-03-23T07:10:44.293Z,13.80
2019-03-23T07:13:10.134Z,17.43
2019-03-23T07:15:35.941Z,13.30
2019-03-23T07:18:01.767Z,14.77
2019-03-23T07:20:27.593Z,13.83
2019-03-23T07:22:54.900Z,13.33
2019-03-23T07:25:20.865Z,12.57
2019-03-23T07:27:46.677Z,14.00
2019-03-23T07:30:13.898Z,11.07
2019-03-23T07:32:39.733Z,11.87
2019-03-23T07:35:05.714Z,11.60
2019-03-23T07:37:31.511Z,13.23
2019-03-23T07:39:57.358Z,12.87
2019-03-23T07:42:23.174Z,11.47
2019-03-23T07:44:49.018Z,11.30
2019-03-23T07:47:14.851Z,13.50
2019-03-23T07:49:40.683Z,14.70
2019-03-23T07:52:06.540Z,11.90
2019-03-23T07:54:32.457Z,12.60
2019-03-23T07:56:58.306Z,10.73
2019-03-23T07:59:24.156Z,11.97
2019-03-23T08:01:49.986Z,13.13
2019-03-23T08:04:15.827Z,10.47
2019-03-23T08:06:41.681Z,11.30
2019-03-23T08:09:07.511Z,11.73
2019-03-23T08:11:33.338Z,13.13
2019-03-23T08:13:59.182Z,12.13
2019-03-23T08:16:25.009Z,12.77
2019-03-23T08:18:50.869Z,12.77
2019-03-23T08:21:16.786Z,13.30
2019-03-23T08:23:42.634Z,14.07
2019-03-23T08:26:08.552Z,13.23
2019-03-23T08:28:34.426Z,13.20
2019-03-23T08:31:00.389Z,11.63
2019-03-23T08:33:26.231Z,12.17
2019-03-23T08:35:52.078Z,16.30
2019-03-23T08:38:17.909Z,13.07
2019-03-23T08:40:43.749Z,12.63
2019-03-23T08:43:09.578Z,13.33
2019-03-23T08:45:35.402Z,17.00
2019-03-23T08:48:01.278Z,12.43
2019-03-23T08:50:27.098Z,13.30
2019-03-23T08:52:52.966Z,13.07
2019-03-23T08:55:18.796Z,11.80
2019-03-23T08:57:44.618Z,13.00
2019-03-23T09:00:10.657Z,14.80
2019-03-23T09:02:36.499Z,13.90
2019-03-23T09:05:04.352Z,14.13
2019-03-23T09:07:30.189Z,14.03
2019-03-23T09:09:59.479Z,18.83
2019-03-23T09:12:23.748Z,17.10
2019-03-23T09:14:49.606Z,17.67
2019-03-23T09:17:15.413Z,15.20
2019-03-23T09:19:41.284Z,17.80
2019-03-23T09:22:07.162Z,17.00
2019-03-23T09:24:32.978Z,15.87
2019-03-23T09:26:58.809Z,21.07
2019-03-23T09:29:24.655Z,18.63
2019-03-23T09:31:50.473Z,18.30
2019-03-23T09:34:16.299Z,19.70
2019-03-23T09:36:42.109Z,20.40
2019-03-23T09:39:07.941Z,21.23
2019-03-23T09:41:33.857Z,22.37
2019-03-23T09:43:59.677Z,24.67
2019-03-23T09:46:25.494Z,21.07
2019-03-23T09:48:51.329Z,23.60
2019-03-23T09:51:17.145Z,24.20
2019-03-23T09:53:42.955Z,23.80
2019-03-23T09:56:08.796Z,20.47
2019-03-23T09:58:34.616Z,24.20
2019-03-23T10:01:00.471Z,25.53
2019-03-23T10:03:26.281Z,24.03
2019-03-23T10:05:52.095Z,26.77
2019-03-23T10:08:17.920Z,20.37
2019-03-23T10:10:43.730Z,27.93
2019-03-23T10:13:09.553Z,29.37
2019-03-23T10:15:35.360Z,27.37
2019-03-23T10:18:01.699Z,26.93
2019-03-23T10:20:27.597Z,37.23
2019-03-23T10:22:53.480Z,32.67
2019-03-23T10:25:19.250Z,30.50
2019-03-23T10:27:45.084Z,29.07
2019-03-23T10:30:11.081Z,32.13
2019-03-23T10:32:36.892Z,29.00
2019-03-23T10:35:05.023Z,33.70
2019-03-23T10:37:30.832Z,39.80
2019-03-23T10:39:56.649Z,35.40
2019-03-23T10:42:22.470Z,31.80
2019-03-23T10:44:48.309Z,33.67
2019-03-23T10:47:14.115Z,32.93
2019-03-23T10:49:39.967Z,32.00
2019-03-23T10:52:05.797Z,31.23
2019-03-23T10:54:31.622Z,39.97
2019-03-23T10:56:57.428Z,33.00
2019-03-23T10:59:23.289Z,36.20
2019-03-23T11:01:49.116Z,31.70
2019-03-23T11:04:14.921Z,27.23
2019-03-23T11:06:40.775Z,27.77
2019-03-23T11:09:06.679Z,22.80
2019-03-23T11:11:32.506Z,25.80
2019-03-23T11:13:58.320Z,33.53
2019-03-23T11:16:24.149Z,27.53
2019-03-23T11:18:49.955Z,28.77
2019-03-23T11:21:15.902Z,24.97
2019-03-23T11:23:41.721Z,27.83
2019-03-23T11:26:07.545Z,31.57
2019-03-23T11:28:33.365Z,28.50
2019-03-23T11:30:59.190Z,26.10
2019-03-23T11:33:25.007Z,26.00
2019-03-23T11:35:57.757Z,29.97
2019-03-23T11:38:18.551Z,27.93
2019-03-23T11:40:52.741Z,29.93
2019-03-23T11:43:12.120Z,27.83
2019-03-23T11:45:37.956Z,27.80
2019-03-23T11:48:03.785Z,26.97
2019-03-23T11:50:29.636Z,26.60
2019-03-23T11:52:55.445Z,27.37
2019-03-23T11:55:21.277Z,31.80
2019-03-23T11:57:47.105Z,28.40
2019-03-23T12:00:13.840Z,28.63
2019-03-23T12:02:39.659Z,31.30
2019-03-23T12:05:07.065Z,27.90
2019-03-23T12:07:32.892Z,25.30
2019-03-23T12:09:58.706Z,26.43
2019-03-23T12:12:24.532Z,27.77
2019-03-23T12:14:50.369Z,30.57
2019-03-23T12:17:16.203Z,27.83
2019-03-23T12:19:42.017Z,27.20
2019-03-23T12:22:07.873Z,25.73
2019-03-23T12:24:33.677Z,24.80
2019-03-23T12:26:59.503Z,25.97
2019-03-23T12:29:25.354Z,32.20
2019-03-23T12:31:51.168Z,26.37
2019-03-23T12:34:17.108Z,34.87
2019-03-23T12:36:43.327Z,27.80
2019-03-23T12:39:09.141Z,33.00
2019-03-23T12:41:34.958Z,28.13
2019-03-23T12:44:00.788Z,41.00
2019-03-23T12:46:26.621Z,27.13
2019-03-23T12:48:52.469Z,25.50
2019-03-23T12:51:18.284Z,32.60
2019-03-23T12:53:44.136Z,27.47
2019-03-23T12:56:09.971Z,26.20
2019-03-23T12:58:35.809Z,31.00
2019-03-23T13:01:01.670Z,26.70
2019-03-23T13:03:27.659Z,32.50
2019-03-23T13:05:53.477Z,32.87
2019-03-23T13:08:19.299Z,30.90
2019-03-23T13:10:45.128Z,32.57
2019-03-23T13:13:10.970Z,33.83
2019-03-23T13:15:36.805Z,32.90
2019-03-23T13:18:03.199Z,27.93
2019-03-23T13:20:29.259Z,26.43
2019-03-23T13:22:55.159Z,27.80
2019-03-23T13:25:20.965Z,30.53
2019-03-23T13:27:46.801Z,28.07
2019-03-23T13:30:15.041Z,29.67
2019-03-23T13:32:40.853Z,27.50
2019-03-23T13:35:06.894Z,25.77
2019-03-23T13:37:32.728Z,27.70
2019-03-23T13:39:58.576Z,26.87
2019-03-23T13:42:24.414Z,32.47
2019-03-23T13:44:50.235Z,32.10
2019-03-23T13:47:16.086Z,26.07
2019-03-23T13:49:41.933Z,29.17
2019-03-23T13:52:07.890Z,26.93
2019-03-23T13:54:33.700Z,30.20
2019-03-23T13:56:59.785Z,33.20
2019-03-23T13:59:25.717Z,33.70
2019-03-23T14:01:51.934Z,29.67
2019-03-23T14:04:17.792Z,28.20
2019-03-23T14:06:43.789Z,27.03
2019-03-23T14:09:09.860Z,32.53
2019-03-23T14:11:35.921Z,27.23
2019-03-23T14:14:02.029Z,29.90
2019-03-23T14:16:27.856Z,30.33
2019-03-23T14:18:53.736Z,33.57
2019-03-23T14:21:19.511Z,31.83
2019-03-23T14:23:45.585Z,36.40
2019-03-23T14:26:11.406Z,29.50
2019-03-23T14:28:37.214Z,32.30
2019-03-23T14:31:03.044Z,36.20
2019-03-23T14:33:28.863Z,29.27
2019-03-23T14:35:54.675Z,37.40
2019-03-23T14:38:20.519Z,37.73
2019-03-23T14:40:46.330Z,36.97
2019-03-23T14:43:12.146Z,33.70
2019-03-23T14:45:37.994Z,28.73
2019-03-23T14:48:03.835Z,29.17
2019-03-23T14:50:29.698Z,29.20
2019-03-23T14:52:55.538Z,26.90
2019-03-23T14:55:21.652Z,29.93
2019-03-23T14:57:47.509Z,31.33
2019-03-23T15:00:17.123Z,33.50
2019-03-23T15:02:42.946Z,29.83
2019-03-23T15:05:08.809Z,37.00
2019-03-23T15:07:34.726Z,31.43
2019-03-23T15:10:00.539Z,36.13
2019-03-23T15:12:26.378Z,35.33
2019-03-23T15:14:52.196Z,37.33
2019-03-23T15:17:18.012Z,33.43
2019-03-23T15:19:43.940Z,31.63
2019-03-23T15:22:09.832Z,34.10
2019-03-23T15:24:35.669Z,29.53
2019-03-23T15:27:01.487Z,29.27
2019-03-23T15:29:27.304Z,33.30
2019-03-23T15:31:53.145Z,33.77
2019-03-23T15:34:18.971Z,37.77
2019-03-23T15:36:44.796Z,29.07
2019-03-23T15:39:10.624Z,40.63
2019-03-23T15:41:36.463Z,29.60
2019-03-23T15:44:02.296Z,31.27
2019-03-23T15:46:28.142Z,28.57
2019-03-23T15:48:53.971Z,30.60
2019-03-23T15:51:19.839Z,32.20
2019-03-23T15:53:45.654Z,29.10
2019-03-23T15:56:11.463Z,31.90
2019-03-23T15:58:37.314Z,28.77
2019-03-23T16:01:03.146Z,26.50
2019-03-23T16:03:28.988Z,31.73
2019-03-23T16:05:54.816Z,29.60
2019-03-23T16:08:20.643Z,31.23
2019-03-23T16:10:46.475Z,29.07
2019-03-23T16:13:12.301Z,27.80
2019-03-23T16:15:38.183Z,33.97
2019-03-23T16:18:04.003Z,29.67
2019-03-23T16:20:29.828Z,27.43
2019-03-23T16:22:55.679Z,27.10
2019-03-23T16:25:21.521Z,30.40
2019-03-23T16:27:47.369Z,24.37
2019-03-23T16:30:17.043Z,29.20
2019-03-23T16:32:42.883Z,30.07
2019-03-23T16:35:09.538Z,30.00
2019-03-23T16:37:35.382Z,29.57
2019-03-23T16:40:02.735Z,31.77
2019-03-23T16:42:28.568Z,27.27
2019-03-23T16:44:54.395Z,24.10
2019-03-23T16:47:20.253Z,25.20
2019-03-23T16:49:46.344Z,27.00
2019-03-23T16:52:12.181Z,29.87
2019-03-23T16:54:38.003Z,26.97
2019-03-23T16:57:03.828Z,27.63
2019-03-23T16:59:29.655Z,27.27
2019-03-23T17:01:55.519Z,29.17
2019-03-23T17:04:21.465Z,30.93
2019-03-23T17:06:47.545Z,30.97
2019-03-23T17:09:13.427Z,28.57
2019-03-23T17:11:39.303Z,29.13
2019-03-23T17:14:05.218Z,28.70
2019-03-23T17:16:31.194Z,36.73
2019-03-23T17:18:57.026Z,28.50
2019-03-23T17:21:25.189Z,31.77
2019-03-23T17:23:51.056Z,31.10
2019-03-23T17:26:17.333Z,28.50
2019-03-23T17:28:43.787Z,27.07
2019-03-23T17:31:09.715Z,30.53
2019-03-23T17:33:35.595Z,29.87
2019-03-23T17:36:01.450Z,27.73
2019-03-23T17:38:27.427Z,28.90
2019-03-23T17:40:53.321Z,32.40
2019-03-23T17:43:19.182Z,28.67
2019-03-23T17:45:45.134Z,29.93
2019-03-23T17:48:10.963Z,32.50
2019-03-23T17:50:36.825Z,29.00
2019-03-23T17:53:02.621Z,26.03
2019-03-23T17:55:28.492Z,26.80
2019-03-23T17:57:54.347Z,25.27
2019-03-23T18:00:20.440Z,26.03
2019-03-23T18:02:46.280Z,20.17
2019-03-23T18:05:14.221Z,36.57
2019-03-23T18:07:40.257Z,28.80
2019-03-23T18:10:06.976Z,31.50
2019-03-23T18:12:32.816Z,33.07
2019-03-23T18:14:58.635Z,37.93
2019-03-23T18:17:24.490Z,36.10
2019-03-23T18:19:50.310Z,41.20
2019-03-23T18:22:16.158Z,42.23
2019-03-23T18:24:41.990Z,40.07
2019-03-23T18:27:07.964Z,32.07
2019-03-23T18:29:33.821Z,33.93
2019-03-23T18:31:59.768Z,62.00
2019-03-23T18:34:25.611Z,59.43
2019-03-23T18:36:52.062Z,55.63
2019-03-23T18:39:17.917Z,46.83
2019-03-23T18:41:43.912Z,42.67
2019-03-23T18:44:16.090Z,34.37
2019-03-23T18:46:37.960Z,29.27
2019-03-23T18:49:03.888Z,24.77
2019-03-23T18:51:29.862Z,22.23
2019-03-23T18:53:55.920Z,21.27
2019-03-23T18:56:21.774Z,22.63
2019-03-23T18:58:47.717Z,14.60
2019-03-23T19:01:13.654Z,18.43
2019-03-23T19:03:40.497Z,14.93
2019-03-23T19:06:06.692Z,18.73
2019-03-23T19:08:32.599Z,15.00
2019-03-23T19:10:58.465Z,14.57
2019-03-23T19:13:24.466Z,21.63
2019-03-23T19:15:50.304Z,15.90
2019-03-23T19:18:16.181Z,16.50
2019-03-23T19:20:42.044Z,22.70
2019-03-23T19:23:07.891Z,30.83
2019-03-23T19:25:33.743Z,33.37
2019-03-23T19:27:59.650Z,29.97
2019-03-23T19:30:25.720Z,35.37
2019-03-23T19:32:51.652Z,42.77
2019-03-23T19:35:17.492Z,34.03
2019-03-23T19:37:43.382Z,36.57
2019-03-23T19:40:09.405Z,34.27
2019-03-23T19:42:35.255Z,43.17
2019-03-23T19:45:01.233Z,49.23
2019-03-23T19:47:27.140Z,39.30
2019-03-23T19:49:53.069Z,40.50
2019-03-23T19:52:18.949Z,34.10
2019-03-23T19:54:44.828Z,34.10
2019-03-23T19:57:10.793Z,29.80
2019-03-23T19:59:36.639Z,30.53
2019-03-23T20:02:02.594Z,33.20
2019-03-23T20:04:28.435Z,32.70
2019-03-23T20:06:54.378Z,30.73
2019-03-23T20:09:20.233Z,31.90
2019-03-23T20:11:46.124Z,37.97
2019-03-23T20:14:12.032Z,49.33
2019-03-23T20:16:37.886Z,40.40
2019-03-23T20:19:03.837Z,36.80
2019-03-23T20:21:29.715Z,45.20
2019-03-23T20:23:55.562Z,49.53
2019-03-23T20:26:21.416Z,48.80
2019-03-23T20:28:47.325Z,50.97
2019-03-23T20:31:13.212Z,61.90
2019-03-23T20:33:39.055Z,67.47
2019-03-23T20:36:04.978Z,73.20
2019-03-23T20:38:30.825Z,83.77
2019-03-23T20:40:56.708Z,81.57
2019-03-23T20:43:22.590Z,81.40
2019-03-23T20:45:48.472Z,84.57
2019-03-23T20:48:14.435Z,91.70
2019-03-23T20:50:40.739Z,88.47
2019-03-23T20:53:06.662Z,90.80
2019-03-23T20:55:32.644Z,82.23
2019-03-23T20:57:58.467Z,89.53
2019-03-23T21:00:24.309Z,111.60
2019-03-23T21:02:50.408Z,96.73
2019-03-23T21:05:16.383Z,99.27
2019-03-23T21:07:42.265Z,97.30
2019-03-23T21:10:08.349Z,78.20
2019-03-23T21:12:34.215Z,91.47
2019-03-23T21:15:00.040Z,83.80
2019-03-23T21:17:25.880Z,95.47
2019-03-23T21:19:51.794Z,88.30
2019-03-23T21:22:20.648Z,85.10
2019-03-23T21:24:47.215Z,74.83
2019-03-23T21:27:24.867Z,85.00
2019-03-23T21:29:50.806Z,89.27
2019-03-23T21:32:16.728Z,81.60
2019-03-23T21:34:42.515Z,85.30
2019-03-23T21:37:09.235Z,95.30
2019-03-23T21:39:35.314Z,95.03
2019-03-23T21:42:01.174Z,91.10
2019-03-23T21:44:31.314Z,91.90
2019-03-23T21:46:54.868Z,91.00
2019-03-23T21:49:20.724Z,99.27
2019-03-23T21:51:46.649Z,99.17
2019-03-23T21:54:12.448Z,97.07
2019-03-23T21:56:38.288Z,100.90
2019-03-23T21:59:04.226Z,88.17
2019-03-23T22:01:30.053Z,101.77
2019-03-23T22:03:55.899Z,94.23
2019-03-23T22:06:21.730Z,94.43
2019-03-23T22:08:47.562Z,98.57
2019-03-23T22:11:13.676Z,106.00
2019-03-23T22:13:39.571Z,91.00
2019-03-23T22:16:05.659Z,105.40
2019-03-23T22:18:31.478Z,102.30
2019-03-23T22:20:57.347Z,99.33
2019-03-23T22:23:23.196Z,96.47
2019-03-23T22:25:49.063Z,109.67
2019-03-23T22:28:14.873Z,107.87
2019-03-23T22:30:40.719Z,103.17
2019-03-23T22:33:06.555Z,109.13
2019-03-23T22:35:32.402Z,109.80
2019-03-23T22:37:58.225Z,111.03
2019-03-23T22:40:24.066Z,102.93
2019-03-23T22:42:49.913Z,101.47
2019-03-23T22:45:15.754Z,110.10
2019-03-23T22:47:41.722Z,102.20
2019-03-23T22:50:08.144Z,99.57
2019-03-23T22:52:34.030Z,118.27
2019-03-23T22:54:59.919Z,105.47
2019-03-23T22:57:25.775Z,104.80
2019-03-23T22:59:51.641Z,98.83
2019-03-23T23:02:17.484Z,102.43
2019-03-23T23:04:43.311Z,116.10
2019-03-23T23:07:09.201Z,104.23
2019-03-23T23:09:35.014Z,98.20
2019-03-23T23:12:00.991Z,103.60
2019-03-23T23:14:26.818Z,106.50
2019-03-23T23:16:52.687Z,100.70
2019-03-23T23:19:18.590Z,95.47
2019-03-23T23:21:44.497Z,99.47
2019-03-23T23:24:10.340Z,91.47
2019-03-23T23:26:36.151Z,93.07
2019-03-23T23:29:02.109Z,91.10
2019-03-23T23:31:27.936Z,100.43
2019-03-23T23:33:53.799Z,100.70
2019-03-23T23:36:19.613Z,103.97
2019-03-23T23:38:45.428Z,95.80
2019-03-23T23:41:11.370Z,106.10
2019-03-23T23:43:37.181Z,105.90
2019-03-23T23:46:03.107Z,106.93
2019-03-23T23:48:28.954Z,109.97
2019-03-23T23:50:54.803Z,118.20
2019-03-23T23:53:20.644Z,110.90
2019-03-23T23:55:46.475Z,97.43
2019-03-23T23:58:12.328Z,98.60
